Time;durP1;ratioP1;P1;durP2;ratioP2;P2;SDS_P1;SDS_P2;PMS_P1;PMS_P2;Temp;Humidity;BMP_temperature;BMP_pressure;BME280_temperature;BME280_humidity;BME280_pressure;Samples;Min_cycle;Max_cycle;Signal;HPM_P1;HPM_P2
2023/02/20 00:00:08;;;;;;;;;;;;;;;8.07;96.68;100806.38;4981131;28;19972;-53
2023/02/20 00:02:33;;;;;;;;;;;;;;;7.94;95.51;100808.00;5010859;28;20349;-52
2023/02/20 00:04:58;;;;;;;;;;;;;;;7.87;93.38;100819.06;4979863;28;20013;-50
2023/02/20 00:07:23;;;;;;;;;;;;;;;7.92;92.78;100837.06;4980901;28;20552;-50
2023/02/20 00:09:49;;;;;;;;;;;;;;;7.87;92.09;100847.28;4981005;28;20509;-52
2023/02/20 00:12:14;;;;;;;;;;;;;;;8.20;89.21;100861.22;4980952;28;19925;-51
2023/02/20 00:14:39;;;;;;;;;;;;;;;8.41;89.90;100881.09;4981291;28;19926;-49
2023/02/20 00:17:04;;;;;;;;;;;;;;;9.30;89.80;100902.13;4979659;28;19932;-49
2023/02/20 00:19:29;;;;;;;;;;;;;;;8.17;96.89;100817.59;4981308;28;20441;-49
2023/02/20 00:21:55;;;;;;;;;;;;;;;8.27;96.85;100805.69;5010890;28;19932;-48
2023/02/20 00:24:20;;;;;;;;;;;;;;;8.18;96.01;100806.47;5012709;28;19925;-50
2023/02/20 00:26:46;;;;;;;;;;;;;;;8.94;93.97;100834.31;4980354;28;19961;-49
2023/02/20 00:29:13;;;;;;;;;;;;;;;8.66;98.58;100784.50;4980200;28;19968;-49
2023/02/20 00:31:38;;;;;;;;;;;;;;;8.13;100.00;100746.56;4995943;28;19922;-50
2023/02/20 00:34:03;;;;;;;;;;;;;;;8.55;100.00;100755.34;4980798;28;19976;-50
2023/02/20 00:36:29;;;;;;;;;;;;;;;8.29;100.00;100720.13;5012764;28;19921;-51
2023/02/20 00:38:54;;;;;;;;;;;;;;;8.41;100.00;100710.81;4980960;28;19964;-52
2023/02/20 00:41:20;;;;;;;;;;;;;;;8.03;100.00;100688.31;4980961;28;19971;-49
2023/02/20 00:43:46;;;;;;;;;;;;;;;8.06;100.00;100688.38;4980698;28;19922;-49
2023/02/20 00:46:11;;;;;;;;;;;;;;;7.96;100.00;100657.53;5017007;28;19932;-51
2023/02/20 00:48:37;;;;;;;;;;;;;;;8.65;100.00;100682.66;5004146;28;20020;-50
2023/02/20 00:51:02;;;;;;;;;;;;;;;7.56;100.00;100629.94;5008253;28;19917;-48
2023/02/20 00:53:27;;;;;;;;;;;;;;;7.89;100.00;100645.53;4999088;28;19921;-50
2023/02/20 00:55:52;;;;;;;;;;;;;;;8.69;100.00;100666.41;5001321;28;19928;-48
2023/02/20 00:58:18;;;;;;;;;;;;;;;9.12;100.00;100673.31;5017973;28;20022;-49
2023/02/20 01:00:43;;;;;;;;;;;;;;;8.10;100.00;100608.84;4979840;28;20011;-50
2023/02/20 01:03:08;;;;;;;;;;;;;;;8.29;100.00;100630.28;4979980;28;20000;-49
2023/02/20 01:05:33;;;;;;;;;;;;;;;7.81;100.00;100601.00;4980020;28;19972;-51
2023/02/20 01:07:58;;;;;;;;;;;;;;;7.72;100.00;100596.69;4997736;28;19929;-51
2023/02/20 01:10:24;;;;;;;;;;;;;;;8.33;100.00;100615.78;5000064;28;19921;-51
2023/02/20 01:12:49;;;;;;;;;;;;;;;8.87;100.00;100618.47;5015214;28;20804;-49
2023/02/20 01:15:14;;;;;;;;;;;;;;;8.21;100.00;100575.53;4980150;28;20065;-49
2023/02/20 01:17:39;;;;;;;;;;;;;;;8.35;100.00;100576.41;4979959;28;19921;-50
2023/02/20 01:20:06;;;;;;;;;;;;;;;8.38;100.00;100566.13;4978969;28;20125;-48
2023/02/20 01:22:31;;;;;;;;;;;;;;;8.52;100.00;100560.22;4979860;28;19952;-51
2023/02/20 01:24:56;;;;;;;;;;;;;;;7.98;100.00;100547.19;4979488;28;19925;-49
2023/02/20 01:27:21;;;;;;;;;;;;;;;7.77;100.00;100553.09;4978357;28;20878;-48
2023/02/20 01:29:47;;;;;;;;;;;;;;;7.86;100.00;100555.72;4979140;28;20358;-48
2023/02/20 01:32:12;;;;;;;;;;;;;;;7.66;100.00;100552.19;4980129;28;20291;-49
2023/02/20 01:34:37;;;;;;;;;;;;;;;8.10;100.00;100579.78;4979353;28;19926;-49
2023/02/20 01:37:02;;;;;;;;;;;;;;;8.12;100.00;100567.81;4978930;28;20664;-49
2023/02/20 01:39:29;;;;;;;;;;;;;;;7.66;100.00;100558.22;4979366;28;20691;-50
2023/02/20 01:42:04;;;;;;;;;;;;;;;7.21;100.00;100558.81;4979577;28;19917;-49
2023/02/20 01:44:31;;;;;;;;;;;;;;;7.60;100.00;100586.38;5021749;28;20009;-50
2023/02/20 01:46:56;;;;;;;;;;;;;;;7.78;100.00;100585.63;5020518;28;19925;-47
2023/02/20 01:49:24;;;;;;;;;;;;;;;8.07;100.00;100590.00;4980267;28;20409;-48
2023/02/20 01:51:57;;;;;;;;;;;;;;;8.34;100.00;100577.25;5016782;28;20417;-49
2023/02/20 01:54:23;;;;;;;;;;;;;;;8.10;100.00;100543.84;5014036;28;19922;-47
2023/02/20 01:56:48;;;;;;;;;;;;;;;7.41;100.00;100529.03;5019774;28;19932;-47
2023/02/20 01:59:13;;;;;;;;;;;;;;;8.41;100.00;100561.91;5011046;28;19968;-48
2023/02/20 02:01:38;;;;;;;;;;;;;;;8.46;100.00;100555.06;4979666;28;21062;-47
2023/02/20 02:04:05;;;;;;;;;;;;;;;8.10;100.00;100536.16;4998365;28;20046;-48
2023/02/20 02:06:31;;;;;;;;;;;;;;;8.45;100.00;100519.97;4979184;28;19941;-47
2023/02/20 02:08:57;;;;;;;;;;;;;;;8.23;100.00;100495.94;4978913;28;19932;-48
2023/02/20 02:11:22;;;;;;;;;;;;;;;8.91;100.00;100504.56;4980513;28;19977;-48
2023/02/20 02:13:48;;;;;;;;;;;;;;;8.81;100.00;100469.47;4982721;28;19933;-48
2023/02/20 02:16:32;;;;;;;;;;;;;;;8.80;100.00;100463.47;4981578;28;19932;-48
2023/02/20 02:19:00;;;;;;;;;;;;;;;9.35;100.00;100465.06;4982826;28;19928;-47
2023/02/20 02:21:28;;;;;;;;;;;;;;;8.44;100.00;100419.00;4982798;28;19922;-47
2023/02/20 02:24:02;;;;;;;;;;;;;;;9.05;100.00;100430.03;4981683;28;19926;-48
2023/02/20 02:26:27;;;;;;;;;;;;;;;8.84;100.00;100402.69;5017220;28;19968;-47
2023/02/20 02:29:01;;;;;;;;;;;;;;;9.35;100.00;100405.91;4985982;28;20337;-48
2023/02/20 02:31:26;;;;;;;;;;;;;;;9.33;100.00;100384.53;4983206;28;20016;-48
2023/02/20 02:33:54;;;;;;;;;;;;;;;9.50;100.00;100380.13;4982890;28;20008;-47
2023/02/20 02:36:38;;;;;;;;;;;;;;;9.43;100.00;100343.31;4981897;28;20287;-47
2023/02/20 02:39:12;;;;;;;;;;;;;;;9.75;100.00;100331.97;4982809;28;19976;-47
2023/02/20 02:41:43;;;;;;;;;;;;;;;8.96;100.00;100287.00;5027478;28;19924;-47
2023/02/20 02:44:26;;;;;;;;;;;;;;;9.15;100.00;100287.81;4986669;28;19928;-49
2023/02/20 02:47:12;;;;;;;;;;;;;;;9.41;100.00;100295.34;4983005;28;20547;-47
2023/02/20 02:49:56;;;;;;;;;;;;;;;9.10;100.00;100276.66;4981820;28;19918;-49
2023/02/20 02:52:37;;;;;;;;;;;;;;;8.68;100.00;100297.41;4984188;28;19924;-49
2023/02/20 02:55:06;;;;;;;;;;;;;;;8.56;100.00;100323.13;4982278;28;19924;-48
2023/02/20 02:57:31;;;;;;;;;;;;;;;9.05;100.00;100340.94;4981819;28;19964;-48
2023/02/20 03:00:00;;;;;;;;;;;;;;;8.57;100.00;100327.41;4982593;28;19949;-49
2023/02/20 03:02:27;;;;;;;;;;;;;;;9.34;100.00;100369.06;4980250;28;20315;-47
2023/02/20 03:04:52;;;;;;;;;;;;;;;8.83;100.00;100334.19;4979101;28;19984;-50
2023/02/20 03:07:18;;;;;;;;;;;;;;;9.12;100.00;100345.22;5014794;28;19930;-48
2023/02/20 03:09:48;;;;;;;;;;;;;;;8.84;100.00;100325.63;5026240;28;20037;-48
2023/02/20 03:12:14;;;;;;;;;;;;;;;8.83;100.00;100337.63;4981828;28;20402;-47
2023/02/20 03:17:30;;;;;;;;;;;;;;;8.58;100.00;100342.81;4981042;28;20382;-49
2023/02/20 03:19:56;;;;;;;;;;;;;;;9.34;100.00;100369.06;5019407;28;19929;-47
2023/02/20 03:22:21;;;;;;;;;;;;;;;10.13;100.00;100369.44;5001823;28;20470;-50
2023/02/20 03:24:54;;;;;;;;;;;;;;;10.29;100.00;100318.69;4980755;28;19926;-47
2023/02/20 03:27:23;;;;;;;;;;;;;;;10.00;100.00;100246.84;5011615;28;19925;-48
2023/02/20 03:29:48;;;;;;;;;;;;;;;10.15;100.00;100220.09;4981378;28;20048;-50
2023/02/20 03:43:21;;;;;;;;;;;;;;;9.20;100.00;100160.94;4981441;28;19944;-50
2023/02/20 03:45:47;;;;;;;;;;;;;;;9.27;100.00;100158.34;5016370;28;19921;-50
2023/02/20 03:48:18;;;;;;;;;;;;;;;9.14;100.00;100161.00;4981533;28;19940;-47
2023/02/20 03:50:50;;;;;;;;;;;;;;;9.18;100.00;100166.97;4983354;28;20398;-48
2023/02/20 03:53:15;;;;;;;;;;;;;;;9.06;100.00;100162.78;4997400;28;19917;-48
2023/02/20 03:55:40;;;;;;;;;;;;;;;9.18;100.00;100166.97;5028580;28;19923;-50
2023/02/20 03:58:07;;;;;;;;;;;;;;;9.19;100.00;100159.25;4997802;28;20268;-48
2023/02/20 04:00:33;;;;;;;;;;;;;;;8.56;100.00;100151.09;5021597;28;19932;-48
2023/02/20 04:03:01;;;;;;;;;;;;;;;8.83;100.00;100169.81;5007685;28;19925;-48
2023/02/20 04:05:28;;;;;;;;;;;;;;;8.86;100.00;100180.88;4981003;28;19984;-47
2023/02/20 04:07:58;;;;;;;;;;;;;;;9.11;100.00;100196.16;5019691;28;19961;-48
2023/02/20 04:10:28;;;;;;;;;;;;;;;8.98;100.00;100206.50;5003238;28;19947;-50
2023/02/20 04:12:53;;;;;;;;;;;;;;;8.78;100.00;100209.19;5020573;28;19926;-47
2023/02/20 04:15:18;;;;;;;;;;;;;;;9.07;100.00;100235.56;5007857;28;20454;-49
2023/02/20 04:17:46;;;;;;;;;;;;;;;8.42;100.00;100209.38;4980702;28;20650;-50
2023/02/20 04:20:11;;;;;;;;;;;;;;;8.78;100.00;100234.00;5001517;28;20361;-48
2023/02/20 04:22:37;;;;;;;;;;;;;;;8.53;100.00;100233.25;4980564;28;20123;-49
2023/02/20 04:25:06;;;;;;;;;;;;;;;8.20;100.00;100240.19;5018580;28;19933;-50
2023/02/20 04:27:31;;;;;;;;;;;;;;;8.83;100.00;100283.66;5009377;28;19972;-48
2023/02/20 04:29:56;;;;;;;;;;;;;;;8.91;100.00;100275.91;5002494;28;20211;-49
2023/02/20 04:32:21;;;;;;;;;;;;;;;8.83;100.00;100257.97;5019274;28;19968;-50
2023/02/20 04:34:47;;;;;;;;;;;;;;;8.47;100.00;100248.72;4979545;28;19922;-47
2023/02/20 04:37:13;;;;;;;;;;;;;;;8.59;100.00;100266.63;4979809;28;19944;-50
2023/02/20 04:39:38;;;;;;;;;;;;;;;8.64;100.00;100280.28;4980219;28;19929;-48
2023/02/20 04:42:04;;;;;;;;;;;;;;;8.14;100.00;100271.88;4980606;28;20425;-48
2023/02/20 04:44:35;;;;;;;;;;;;;;;7.98;100.00;100285.53;4977559;28;19922;-50
2023/02/20 04:47:02;;;;;;;;;;;;;;;7.94;100.00;100294.97;4979673;28;19921;-47
2023/02/20 04:49:27;;;;;;;;;;;;;;;8.27;100.00;100318.88;4979882;28;19921;-48
2023/02/20 04:51:52;;;;;;;;;;;;;;;8.04;100.00;100316.31;4983221;28;20336;-47
2023/02/20 04:54:18;;;;;;;;;;;;;;;8.34;100.00;100335.97;4978010;28;20185;-49
2023/02/20 04:56:43;;;;;;;;;;;;;;;9.02;100.00;100348.66;4978504;28;19921;-48
2023/02/20 04:59:08;;;;;;;;;;;;;;;8.70;100.00;100318.81;4979865;28;19921;-47
2023/02/20 05:01:33;;;;;;;;;;;;;;;8.60;100.00;100306.88;4980014;28;19928;-47
2023/02/20 05:03:59;;;;;;;;;;;;;;;9.11;100.00;100310.06;4980787;28;20366;-47
2023/02/20 05:06:24;;;;;;;;;;;;;;;9.24;100.00;100284.28;4980103;28;19921;-50
2023/02/20 05:08:49;;;;;;;;;;;;;;;9.59;100.00;100260.94;4979139;28;20013;-48
2023/02/20 05:11:14;;;;;;;;;;;;;;;8.99;100.00;100223.63;4979275;28;20417;-49
2023/02/20 05:13:39;;;;;;;;;;;;;;;9.11;100.00;100207.28;4979724;28;20331;-48
2023/02/20 05:16:05;;;;;;;;;;;;;;;9.07;100.00;100185.03;4978855;28;19921;-50
2023/02/20 05:18:30;;;;;;;;;;;;;;;9.17;100.00;100190.97;4980017;28;19914;-49
2023/02/20 05:23:40;;;;;;;;;;;;;;;9.18;100.00;100178.09;4979918;28;19925;-48
2023/02/20 05:26:09;;;;;;;;;;;;;;;8.96;100.00;100162.00;4977869;28;20139;-49
2023/02/20 05:28:34;;;;;;;;;;;;;;;8.87;100.00;100166.31;4980019;28;20272;-49
2023/02/20 05:30:59;;;;;;;;;;;;;;;9.07;100.00;100179.88;4979181;28;19922;-49
2023/02/20 05:33:25;;;;;;;;;;;;;;;9.09;100.00;100167.03;4978643;28;19922;-49
2023/02/20 05:35:50;;;;;;;;;;;;;;;8.63;100.00;100155.34;4979337;28;19921;-49
2023/02/20 05:38:16;;;;;;;;;;;;;;;8.90;100.00;100169.75;4979039;28;19929;-50
2023/02/20 05:40:41;;;;;;;;;;;;;;;8.51;100.00;100160.56;4978929;28;19983;-50
2023/02/20 05:43:06;;;;;;;;;;;;;;;8.82;100.00;100178.34;4979603;28;20398;-49
2023/02/20 05:45:32;;;;;;;;;;;;;;;8.17;100.00;100170.94;4978909;28;20880;-52
2023/02/20 05:47:57;;;;;;;;;;;;;;;8.56;100.00;100203.31;4979034;28;20364;-49
2023/02/20 05:50:22;;;;;;;;;;;;;;;8.61;100.00;100200.72;4978885;28;20344;-49
2023/02/20 05:52:47;;;;;;;;;;;;;;;9.17;100.00;100214.97;4979187;28;20578;-52
2023/02/20 05:55:12;;;;;;;;;;;;;;;8.19;100.00;100182.03;4977843;28;20335;-49
2023/02/20 05:57:38;;;;;;;;;;;;;;;8.76;100.00;100200.66;4979101;28;20433;-51
2023/02/20 06:00:03;;;;;;;;;;;;;;;8.84;100.00;100203.16;4978868;28;20379;-49
2023/02/20 06:02:30;;;;;;;;;;;;;;;8.67;100.00;100192.16;4978600;28;21408;-52
2023/02/20 06:04:55;;;;;;;;;;;;;;;8.98;100.00;100203.09;4978429;28;20509;-49
2023/02/20 06:07:21;;;;;;;;;;;;;;;8.53;100.00;100179.34;4978045;28;20214;-49
2023/02/20 06:09:46;;;;;;;;;;;;;;;8.98;100.00;100190.22;4976622;28;19952;-49
2023/02/20 06:12:11;;;;;;;;;;;;;;;8.79;100.00;100182.63;4978951;28;19926;-50
2023/02/20 06:14:36;;;;;;;;;;;;;;;9.30;100.00;100189.16;4979563;28;20401;-51
2023/02/20 06:17:02;;;;;;;;;;;;;;;8.73;100.00;100149.28;4977993;28;19976;-48
2023/02/20 06:19:27;;;;;;;;;;;;;;;8.90;100.00;100145.78;4978813;28;19972;-49
2023/02/20 06:21:52;;;;;;;;;;;;;;;8.51;100.00;100132.31;4979203;28;19922;-50
2023/02/20 06:24:18;;;;;;;;;;;;;;;9.00;100.00;100143.09;5024589;28;19932;-52
2023/02/20 06:26:43;;;;;;;;;;;;;;;8.83;100.00;100136.41;4978217;28;19925;-48
2023/02/20 06:29:08;;;;;;;;;;;;;;;9.49;100.00;100147.00;4996148;28;20439;-49
2023/02/20 06:31:34;;;;;;;;;;;;;;;9.16;100.00;100123.28;4979170;28;20184;-50
2023/02/20 06:33:59;;;;;;;;;;;;;;;9.05;100.00;100109.66;4978429;28;20892;-50
2023/02/20 06:36:25;;;;;;;;;;;;;;;8.94;100.00;100083.22;4977451;28;20332;-49
2023/02/20 06:38:50;;;;;;;;;;;;;;;8.71;100.00;100084.25;4977910;28;19925;-49
2023/02/20 06:41:16;;;;;;;;;;;;;;;9.28;100.00;100106.06;5003453;28;20501;-49
2023/02/20 06:43:41;;;;;;;;;;;;;;;9.10;100.00;100102.81;4979141;28;19960;-49
2023/02/20 06:46:06;;;;;;;;;;;;;;;8.94;100.00;100086.66;4977476;28;20441;-51
2023/02/20 06:48:31;;;;;;;;;;;;;;;9.27;100.00;100089.78;4978028;28;20897;-49
2023/02/20 06:50:57;;;;;;;;;;;;;;;8.96;100.00;100073.78;4980261;28;20374;-52
2023/02/20 06:53:22;;;;;;;;;;;;;;;9.33;100.00;100094.88;4978476;28;20624;-49
2023/02/20 06:55:47;;;;;;;;;;;;;;;8.72;100.00;100069.69;4978103;28;20356;-51
2023/02/20 06:58:12;;;;;;;;;;;;;;;9.16;100.00;100086.47;4979109;28;19921;-49
2023/02/20 07:00:38;;;;;;;;;;;;;;;9.08;100.00;100090.84;4980700;28;19922;-49
2023/02/20 07:03:03;;;;;;;;;;;;;;;8.34;100.00;100079.28;4982283;28;20464;-48
2023/02/20 07:05:28;;;;;;;;;;;;;;;8.37;100.00;100104.97;4981167;28;19925;-51
2023/02/20 07:07:53;;;;;;;;;;;;;;;8.08;100.00;100122.22;4981164;28;19956;-48
2023/02/20 07:10:18;;;;;;;;;;;;;;;7.83;100.00;100135.09;4982050;28;20409;-49
2023/02/20 07:12:44;;;;;;;;;;;;;;;8.32;100.00;100191.38;4982273;28;20012;-50
2023/02/20 07:15:11;;;;;;;;;;;;;;;8.48;100.00;100217.03;4981238;28;20217;-49
2023/02/20 07:17:36;;;;;;;;;;;;;;;8.64;100.00;100223.81;4980645;28;20367;-48
2023/02/20 07:20:03;;;;;;;;;;;;;;;8.47;100.00;100230.75;5018819;28;19925;-49
2023/02/20 07:22:28;;;;;;;;;;;;;;;7.73;100.00;100212.91;4981875;28;19928;-48
2023/02/20 07:24:54;;;;;;;;;;;;;;;8.43;100.00;100259.84;4981245;28;19926;-50
2023/02/20 07:27:19;;;;;;;;;;;;;;;8.61;100.00;100267.47;4980417;28;19929;-48
2023/02/20 07:29:45;;;;;;;;;;;;;;;7.87;100.00;100234.28;4979321;28;19922;-48
2023/02/20 07:32:10;;;;;;;;;;;;;;;8.76;100.00;100287.97;4981940;28;19922;-50
2023/02/20 07:34:35;;;;;;;;;;;;;;;7.79;100.00;100248.78;4980433;28;19926;-48
2023/02/20 07:37:00;;;;;;;;;;;;;;;8.09;100.00;100268.44;4979962;28;19921;-50
2023/02/20 07:39:26;;;;;;;;;;;;;;;8.08;100.00;100265.88;4981117;28;19944;-48
2023/02/20 07:41:51;;;;;;;;;;;;;;;7.69;100.00;100262.50;5013049;28;19921;-50
2023/02/20 07:44:16;;;;;;;;;;;;;;;7.39;100.00;100263.31;4981249;28;20302;-48
2023/02/20 07:46:42;;;;;;;;;;;;;;;8.19;100.00;100302.66;4997093;28;20375;-48
2023/02/20 07:49:07;;;;;;;;;;;;;;;7.84;100.00;100302.66;4980302;28;20298;-47
2023/02/20 07:51:32;;;;;;;;;;;;;;;7.93;100.00;100336.84;4980489;28;20264;-49
2023/02/20 07:53:58;;;;;;;;;;;;;;;8.65;100.00;100361.63;4981133;28;19972;-48
2023/02/20 07:56:23;;;;;;;;;;;;;;;7.77;100.00;100321.47;4979972;28;20187;-49
2023/02/20 07:58:48;;;;;;;;;;;;;;;7.92;100.00;100342.84;4980139;28;19960;-48
2023/02/20 08:01:13;;;;;;;;;;;;;;;7.75;100.00;100349.66;4980355;28;19933;-50
2023/02/20 08:03:39;;;;;;;;;;;;;;;7.72;100.00;100365.06;4980990;28;20395;-49
2023/02/20 08:06:04;;;;;;;;;;;;;;;7.86;100.00;100383.03;4981061;28;20699;-48
2023/02/20 08:08:29;;;;;;;;;;;;;;;8.15;100.00;100409.56;4982306;28;19925;-50
2023/02/20 08:10:55;;;;;;;;;;;;;;;8.20;100.00;100407.00;4980474;28;20000;-48
2023/02/20 08:13:20;;;;;;;;;;;;;;;7.87;100.00;100392.44;4983979;28;20017;-48
2023/02/20 08:15:46;;;;;;;;;;;;;;;8.08;100.00;100400.16;4980932;28;19980;-48
2023/02/20 08:18:12;;;;;;;;;;;;;;;7.52;100.00;100376.09;4980386;28;21053;-50
2023/02/20 08:20:37;;;;;;;;;;;;;;;7.58;100.00;100393.22;4981033;28;20012;-49
2023/02/20 08:23:04;;;;;;;;;;;;;;;7.87;100.00;100418.94;4980095;28;19922;-48
2023/02/20 08:25:29;;;;;;;;;;;;;;;8.42;100.00;100438.69;4980331;28;20445;-48
2023/02/20 08:27:55;;;;;;;;;;;;;;;7.53;100.00;100398.34;4979740;28;19926;-48
2023/02/20 08:30:22;;;;;;;;;;;;;;;8.57;100.00;100445.50;4978620;28;19917;-49
2023/02/20 08:32:49;;;;;;;;;;;;;;;8.08;100.00;100422.38;4980626;28;20522;-48
2023/02/20 08:35:14;;;;;;;;;;;;;;;8.22;100.00;100407.84;4980726;28;19917;-48
2023/02/20 08:37:39;;;;;;;;;;;;;;;8.31;100.00;100405.28;4979985;28;20291;-50
2023/02/20 08:40:07;;;;;;;;;;;;;;;8.14;100.00;100383.88;4980816;28;19961;-48
2023/02/20 08:42:33;;;;;;;;;;;;;;;8.55;100.00;100395.88;4979420;28;20573;-49
2023/02/20 08:44:58;;;;;;;;;;;;;;;8.32;100.00;100389.00;4980801;28;20048;-50
2023/02/20 08:47:23;;;;;;;;;;;;;;;8.99;100.00;100376.94;4979514;28;20335;-49
2023/02/20 08:49:48;;;;;;;;;;;;;;;9.34;100.00;100368.22;4980854;28;20437;-48
2023/02/20 08:52:14;;;;;;;;;;;;;;;8.47;100.00;100284.66;4980580;28;19964;-48
2023/02/20 08:54:39;;;;;;;;;;;;;;;8.31;100.00;100264.13;4979324;28;19964;-49
2023/02/20 08:57:04;;;;;;;;;;;;;;;9.13;100.00;100297.22;4979250;28;20367;-48
2023/02/20 08:59:30;;;;;;;;;;;;;;;8.70;100.00;100274.31;4980435;28;21055;-48
2023/02/20 09:01:55;;;;;;;;;;;;;;;9.39;100.00;100279.91;4979489;28;19926;-49
2023/02/20 09:04:22;;;;;;;;;;;;;;;9.41;100.00;100242.19;4979861;28;19932;-49
2023/02/20 09:06:47;;;;;;;;;;;;;;;8.62;100.00;100207.56;4979833;28;19918;-51
2023/02/20 09:09:13;;;;;;;;;;;;;;;9.07;100.00;100236.44;4979430;28;19922;-48
2023/02/20 09:11:38;;;;;;;;;;;;;;;9.61;100.00;100244.63;4980458;28;19922;-51
2023/02/20 09:14:03;;;;;;;;;;;;;;;9.96;100.00;100230.56;4977421;28;20597;-50
2023/02/20 09:16:28;;;;;;;;;;;;;;;9.67;100.00;100197.44;4977841;28;20462;-49
2023/02/20 09:18:54;;;;;;;;;;;;;;;8.85;100.00;100153.50;4979871;28;20089;-52
2023/02/20 09:21:20;;;;;;;;;;;;;;;10.15;100.00;100191.78;4979726;28;20850;-51
2023/02/20 09:23:45;;;;;;;;;;;;;;;10.46;100.00;100163.97;4981626;28;19922;-48
2023/02/20 09:26:10;;;;;;;;;;;;;;;10.34;100.00;100128.94;4982920;28;20358;-49
2023/02/20 09:28:36;;;;;;;;;;;;;;;9.79;100.00;100093.56;4978574;28;19925;-49
2023/02/20 09:31:01;;;;;;;;;;;;;;;10.21;100.00;100084.44;4978442;28;19932;-49
2023/02/20 09:33:26;;;;;;;;;;;;;;;10.60;100.00;100084.78;4979580;28;20017;-52
2023/02/20 09:35:53;;;;;;;;;;;;;;;9.78;100.00;100037.81;4980108;28;19918;-50
2023/02/20 09:38:18;;;;;;;;;;;;;;;10.46;100.00;100041.22;4979127;28;20462;-49
2023/02/20 09:40:45;;;;;;;;;;;;;;;9.87;100.00;100035.13;4979460;28;20004;-49
2023/02/20 09:43:22;;;;;;;;;;;;;;;10.07;100.00;100047.75;5012026;28;19926;-49
2023/02/20 09:45:58;;;;;;;;;;;;;;;9.77;100.00;100046.41;5012347;28;19930;-49
2023/02/20 09:48:42;;;;;;;;;;;;;;;9.19;100.00;100025.63;5017921;28;19926;-50
2023/02/20 09:51:15;;;;;;;;;;;;;;;9.71;100.00;100054.19;4996974;28;19921;-49
2023/02/20 09:53:49;;;;;;;;;;;;;;;10.53;100.00;100082.34;5024875;28;20008;-49
2023/02/20 09:56:21;;;;;;;;;;;;;;;10.13;100.00;100063.13;4978460;28;19922;-49
2023/02/20 09:58:48;;;;;;;;;;;;;;;9.74;100.00;100064.44;5015711;28;20057;-49
2023/02/20 10:01:15;;;;;;;;;;;;;;;9.77;100.00;100070.41;5011467;28;20012;-48
2023/02/20 10:04:18;;;;;;;;;;;;;;;10.57;100.00;100094.31;5015993;28;19918;-49
2023/02/20 10:06:44;;;;;;;;;;;;;;;10.36;100.00;100086.00;5007800;28;20441;-50
2023/02/20 10:09:11;;;;;;;;;;;;;;;9.95;100.00;100066.78;4997827;28;19921;-49
2023/02/20 10:11:45;;;;;;;;;;;;;;;10.45;100.00;100085.03;4991104;28;19932;-52
2023/02/20 10:14:13;;;;;;;;;;;;;;;10.49;100.00;100053.22;4979445;28;19967;-51
2023/02/20 10:17:14;;;;;;;;;;;;;;;9.70;100.00;100045.63;5013552;28;19932;-51
2023/02/20 10:19:43;;;;;;;;;;;;;;;10.49;100.00;100070.38;5003037;28;19917;-50
2023/02/20 10:22:10;;;;;;;;;;;;;;;10.69;100.00;100078.66;4986414;28;20732;-51
2023/02/20 10:24:41;;;;;;;;;;;;;;;10.56;100.00;100082.28;5017929;28;20004;-50
2023/02/20 10:27:25;;;;;;;;;;;;;;;10.31;100.00;100068.91;4978491;28;20506;-50
2023/02/20 10:29:51;;;;;;;;;;;;;;;9.67;100.00;100065.38;4976787;28;20012;-52
2023/02/20 10:32:24;;;;;;;;;;;;;;;10.16;100.00;100082.81;5016227;28;20005;-50
2023/02/20 10:34:57;;;;;;;;;;;;;;;10.41;100.00;100091.94;5021826;28;19928;-52
2023/02/20 10:37:24;;;;;;;;;;;;;;;10.49;100.00;100091.84;4981466;28;20016;-52
2023/02/20 10:39:55;;;;;;;;;;;;;;;11.14;100.00;100078.81;4983239;28;19925;-50
2023/02/20 10:42:22;;;;;;;;;;;;;;;11.36;100.00;100070.69;5027386;28;20572;-53
2023/02/20 10:44:50;;;;;;;;;;;;;;;11.17;100.00;100060.69;5017893;28;19922;-51
2023/02/20 10:47:15;;;;;;;;;;;;;;;11.12;100.00;100026.41;5025384;28;19918;-53
2023/02/20 10:49:41;;;;;;;;;;;;;;;10.56;100.00;100000.75;4985178;28;19932;-50
2023/02/20 10:52:08;;;;;;;;;;;;;;;9.98;100.00;100002.38;4983364;28;19926;-51
2023/02/20 10:54:37;;;;;;;;;;;;;;;11.02;100.00;100030.03;5021759;28;19980;-50
2023/02/20 10:57:07;;;;;;;;;;;;;;;11.00;100.00;100016.31;5002114;28;19980;-53
2023/02/20 10:59:54;;;;;;;;;;;;;;;11.64;100.00;100012.53;5005611;28;19945;-50
2023/02/20 11:02:23;;;;;;;;;;;;;;;11.14;100.00;100011.78;4982251;28;19922;-52
2023/02/20 11:04:54;;;;;;;;;;;;;;;11.25;100.00;100022.75;4980622;28;20040;-51
2023/02/20 11:07:22;;;;;;;;;;;;;;;11.82;100.00;100031.97;5028900;28;19917;-53
2023/02/20 11:09:48;;;;;;;;;;;;;;;10.84;100.00;99995.13;4984940;28;19932;-51
2023/02/20 11:12:30;;;;;;;;;;;;;;;11.77;100.00;100030.34;4982903;28;19918;-52
2023/02/20 11:14:56;;;;;;;;;;;;;;;11.75;100.00;100014.91;5022039;28;19921;-51
2023/02/20 11:17:25;;;;;;;;;;;;;;;11.80;100.00;99996.75;5016069;28;19917;-53
2023/02/20 11:19:52;;;;;;;;;;;;;;;11.73;100.00;99991.69;5016417;28;19957;-52
2023/02/20 11:22:18;;;;;;;;;;;;;;;11.44;100.00;99973.38;5014484;28;19921;-52
2023/02/20 11:24:44;;;;;;;;;;;;;;;10.22;100.00;99938.59;4980260;28;20473;-53
2023/02/20 11:27:09;;;;;;;;;;;;;;;11.90;100.00;99996.53;5017098;28;19918;-51
2023/02/20 11:29:54;;;;;;;;;;;;;;;11.30;100.00;99974.50;4976959;28;20015;-52
2023/02/20 11:32:22;;;;;;;;;;;;;;;11.61;100.00;99985.94;5012489;28;19925;-51
2023/02/20 11:34:47;;;;;;;;;;;;;;;10.91;100.00;99965.78;4979374;28;19930;-50
2023/02/20 11:37:12;;;;;;;;;;;;;;;11.11;100.00;99988.63;5019575;28;19926;-52
2023/02/20 11:39:39;;;;;;;;;;;;;;;10.94;100.00;99988.06;4985142;28;19929;-51
2023/02/20 11:42:05;;;;;;;;;;;;;;;11.47;100.00;100012.00;5020124;28;20386;-54
2023/02/20 11:44:30;;;;;;;;;;;;;;;10.74;100.00;99988.41;4982444;28;19925;-53
2023/02/20 11:47:09;;;;;;;;;;;;;;;11.47;100.00;100012.88;4980755;28;19922;-55
2023/02/20 11:49:34;;;;;;;;;;;;;;;11.11;100.00;99988.63;4983314;28;19972;-54
2023/02/20 11:52:05;;;;;;;;;;;;;;;11.59;100.00;100014.38;5012561;28;19921;-54
2023/02/20 11:54:31;;;;;;;;;;;;;;;10.76;100.00;100009.84;4989370;28;19929;-53
2023/02/20 11:57:15;;;;;;;;;;;;;;;10.84;100.00;100052.66;4988944;28;19922;-54
2023/02/20 11:59:41;;;;;;;;;;;;;;;10.92;100.00;100080.88;4984927;28;20280;-52
2023/02/20 12:02:09;;;;;;;;;;;;;;;10.23;100.00;100095.56;4987786;28;20024;-52
2023/02/20 12:04:34;;;;;;;;;;;;;;;10.25;100.00;100144.47;4984135;28;19933;-54
2023/02/20 12:07:00;;;;;;;;;;;;;;;10.20;100.00;100162.56;4983938;28;19921;-53
2023/02/20 12:09:25;;;;;;;;;;;;;;;10.01;100.00;100177.38;5020771;28;19928;-54
2023/02/20 12:11:52;;;;;;;;;;;;;;;9.94;100.00;100205.72;5026882;28;19929;-54
2023/02/20 12:14:19;;;;;;;;;;;;;;;9.85;100.00;100229.81;5010556;28;19979;-54
2023/02/20 12:16:44;;;;;;;;;;;;;;;9.98;100.00;100259.72;4984110;28;19922;-54
2023/02/20 12:19:21;;;;;;;;;;;;;;;10.03;100.00;100288.88;4988777;28;19924;-53
2023/02/20 12:21:55;;;;;;;;;;;;;;;9.49;100.00;100280.72;4983487;28;20430;-52
2023/02/20 12:24:44;;;;;;;;;;;;;;;9.48;100.00;100309.00;4980627;28;20915;-54
2023/02/20 12:27:16;;;;;;;;;;;;;;;9.34;100.00;100312.53;4987307;28;19921;-53
2023/02/20 12:29:51;;;;;;;;;;;;;;;9.01;97.10;100328.97;5000202;28;19944;-51
2023/02/20 12:32:21;;;;;;;;;;;;;;;8.35;96.72;100341.97;4980823;28;19922;-54
2023/02/20 12:34:58;;;;;;;;;;;;;;;9.11;84.49;100412.03;5012419;28;19930;-54
2023/02/20 12:37:27;;;;;;;;;;;;;;;8.69;82.10;100419.84;5015977;28;19917;-53
2023/02/20 12:39:58;;;;;;;;;;;;;;;8.72;76.78;100454.94;5014569;28;20544;-53
2023/02/20 12:42:49;;;;;;;;;;;;;;;9.33;73.31;100500.22;4981083;28;20044;-54
2023/02/20 12:45:21;;;;;;;;;;;;;;;9.17;77.93;100484.84;4978292;28;19926;-52
2023/02/20 12:47:46;;;;;;;;;;;;;;;8.44;80.86;100446.38;4980050;28;19948;-52
2023/02/20 12:50:14;;;;;;;;;;;;;;;9.26;74.99;100477.94;4980826;28;19925;-52
2023/02/20 12:52:55;;;;;;;;;;;;;;;9.02;72.75;100479.72;4980281;28;20490;-54